Time;durP1;ratioP1;P1;durP2;ratioP2;P2;SDS_P1;SDS_P2;PMS_P1;PMS_P2;Temp;Humidity;BMP_temperature;BMP_pressure;BME280_temperature;BME280_humidity;BME280_pressure;Samples;Min_cycle;Max_cycle;Signal;HPM_P1;HPM_P2
2023/12/14 00:01:46;;;;;;;8.37;6.07;;;4.50;99.90;;;;;;6309945;22;20227;-84
2023/12/14 00:04:12;;;;;;;10.00;6.07;;;4.50;99.90;;;;;;6282902;22;20159;-85
2023/12/14 00:06:38;;;;;;;10.63;6.30;;;4.40;99.90;;;;;;6282965;22;20235;-86
2023/12/14 00:09:04;;;;;;;7.37;6.00;;;4.50;99.90;;;;;;6309860;22;20559;-84
2023/12/14 00:11:30;;;;;;;10.33;6.00;;;4.50;99.90;;;;;;6282913;22;20621;-85
2023/12/14 00:13:55;;;;;;;8.10;5.93;;;4.30;99.90;;;;;;6283117;22;20170;-85
2023/12/14 00:16:21;;;;;;;9.93;5.93;;;4.30;99.90;;;;;;6282913;22;20234;-84
2023/12/14 00:18:47;;;;;;;10.77;6.00;;;4.30;99.90;;;;;;6283350;22;20217;-84
2023/12/14 00:21:13;;;;;;;10.03;6.20;;;4.40;99.90;;;;;;6283179;22;20152;-85
2023/12/14 00:23:38;;;;;;;7.80;5.53;;;4.40;99.90;;;;;;6282899;22;20160;-85
2023/12/14 00:26:04;;;;;;;9.10;5.97;;;4.30;99.90;;;;;;6282933;22;20159;-85
2023/12/14 00:28:30;;;;;;;10.07;6.60;;;4.30;99.90;;;;;;6282919;22;20231;-84
2023/12/14 00:30:56;;;;;;;10.57;6.80;;;4.40;99.90;;;;;;6282530;22;20202;-83
2023/12/14 00:33:22;;;;;;;10.17;6.47;;;4.30;99.90;;;;;;6282590;22;20163;-84
2023/12/14 00:35:48;;;;;;;10.07;7.07;;;4.20;99.90;;;;;;6310306;22;20462;-84
2023/12/14 00:38:14;;;;;;;10.67;6.43;;;4.20;99.90;;;;;;6310110;22;20148;-85
2023/12/14 00:40:39;;;;;;;8.37;6.27;;;4.20;99.90;;;;;;6282665;22;20144;-84
2023/12/14 00:43:05;;;;;;;10.30;6.30;;;4.20;99.90;;;;;;6310313;22;20613;-85
2023/12/14 00:45:31;;;;;;;10.57;6.70;;;4.20;99.90;;;;;;6282439;22;20462;-84
2023/12/14 00:47:57;;;;;;;9.07;6.33;;;4.20;99.90;;;;;;6283045;22;20181;-85
2023/12/14 00:50:23;;;;;;;10.13;6.50;;;4.10;99.90;;;;;;6309876;22;20214;-85
2023/12/14 00:52:48;;;;;;;8.83;6.30;;;4.20;99.90;;;;;;6282528;22;20170;-85
2023/12/14 00:55:14;;;;;;;8.40;5.83;;;4.10;99.90;;;;;;6310030;22;20517;-85
2023/12/14 00:57:40;;;;;;;8.27;6.33;;;4.10;99.90;;;;;;6282865;22;20183;-84
2023/12/14 01:00:06;;;;;;;8.47;6.10;;;4.10;99.90;;;;;;6282612;22;20586;-85
2023/12/14 01:02:33;;;;;;;7.80;5.60;;;4.20;99.90;;;;;;6282503;22;20586;-85
2023/12/14 01:04:58;;;;;;;9.10;6.73;;;4.20;99.90;;;;;;6282839;22;20628;-84
2023/12/14 01:07:24;;;;;;;8.97;6.03;;;4.10;99.90;;;;;;6281427;22;20152;-85
2023/12/14 01:09:50;;;;;;;9.50;6.20;;;4.10;99.90;;;;;;6310009;22;20187;-85
2023/12/14 01:12:16;;;;;;;8.07;5.67;;;4.10;99.90;;;;;;6282256;22;20183;-86
2023/12/14 01:14:41;;;;;;;8.37;6.07;;;4.10;99.90;;;;;;6282374;22;20152;-85
2023/12/14 01:17:07;;;;;;;8.40;5.93;;;4.10;99.90;;;;;;6309901;22;20159;-85
2023/12/14 01:19:33;;;;;;;8.63;6.33;;;4.20;99.90;;;;;;6282746;22;20148;-84
2023/12/14 01:21:58;;;;;;;7.73;5.77;;;4.20;99.90;;;;;;6309210;22;20144;-84
2023/12/14 01:24:24;;;;;;;8.30;6.37;;;4.10;99.90;;;;;;6282478;22;20191;-85
2023/12/14 01:26:50;;;;;;;13.43;6.23;;;4.10;99.90;;;;;;6282417;22;20242;-85
2023/12/14 01:29:16;;;;;;;8.07;5.83;;;4.10;99.90;;;;;;6282188;22;20198;-85
2023/12/14 01:31:42;;;;;;;9.30;6.40;;;4.10;99.90;;;;;;6282309;22;20623;-85
2023/12/14 01:34:10;;;;;;;8.73;6.33;;;4.00;99.90;;;;;;6309974;22;20148;-85
2023/12/14 01:36:36;;;;;;;10.60;5.67;;;4.00;99.90;;;;;;6281981;22;20151;-85
2023/12/14 01:39:01;;;;;;;9.63;6.07;;;4.00;99.90;;;;;;6282314;22;20236;-85
2023/12/14 01:41:27;;;;;;;10.83;6.37;;;4.00;99.90;;;;;;6282213;22;20156;-85
2023/12/14 01:43:53;;;;;;;8.17;5.57;;;4.00;99.90;;;;;;6282322;22;20163;-86
2023/12/14 01:46:18;;;;;;;7.27;5.20;;;4.00;99.90;;;;;;6280957;22;20159;-85
2023/12/14 01:48:44;;;;;;;7.20;4.70;;;4.00;99.90;;;;;;6309523;22;20148;-84
2023/12/14 01:51:10;;;;;;;7.10;4.80;;;4.00;99.90;;;;;;6281736;22;20640;-84
2023/12/14 01:53:39;;;;;;;8.80;4.97;;;3.90;99.90;;;;;;6282009;22;20159;-84
2023/12/14 01:56:05;;;;;;;6.23;4.70;;;4.00;99.90;;;;;;6224093;22;20220;-91
2023/12/14 01:58:30;;;;;;;6.57;4.77;;;3.90;99.90;;;;;;6247330;23;20167;-93
2023/12/14 02:01:15;;;;;;;7.00;4.63;;;3.90;99.90;;;;;;6247610;23;20161;-93
2023/12/14 02:03:49;;;;;;;6.93;5.00;;;3.90;99.90;;;;;;6248923;23;20242;-93
2023/12/14 02:06:15;;;;;;;6.00;4.73;;;3.90;99.90;;;;;;6247090;23;20157;-94
2023/12/14 02:08:42;;;;;;;7.70;4.93;;;3.80;99.90;;;;;;6247373;23;20171;-93
2023/12/14 02:11:08;;;;;;;6.77;4.77;;;3.90;99.90;;;;;;6247770;23;20484;-93
2023/12/14 02:13:34;;;;;;;6.10;4.53;;;3.90;99.90;;;;;;6247180;23;20157;-92
2023/12/14 02:16:00;;;;;;;8.43;4.20;;;3.90;99.90;;;;;;6247000;23;20153;-93
2023/12/14 02:18:27;;;;;;;5.97;4.30;;;3.80;99.90;;;;;;6247012;23;20223;-94
2023/12/14 02:20:53;;;;;;;5.07;4.07;;;3.80;99.90;;;;;;6247346;23;20159;-90
2023/12/14 02:23:18;;;;;;;5.90;4.20;;;3.80;99.90;;;;;;6247270;23;20184;-89
2023/12/14 02:25:44;;;;;;;5.47;3.93;;;3.80;99.90;;;;;;6246610;23;20576;-89
2023/12/14 02:28:14;;;;;;;4.50;3.83;;;3.80;99.90;;;;;;6246430;23;20439;-88
2023/12/14 02:30:40;;;;;;;8.53;4.50;;;3.70;99.90;;;;;;6247015;23;20185;-88
2023/12/14 02:33:05;;;;;;;7.53;4.00;;;3.70;99.90;;;;;;6246937;23;20465;-89
2023/12/14 02:35:31;;;;;;;4.87;4.13;;;3.70;99.90;;;;;;6247024;23;20246;-91
2023/12/14 02:37:57;;;;;;;9.70;4.47;;;3.70;99.90;;;;;;6247219;23;20612;-89
2023/12/14 02:40:23;;;;;;;4.93;4.13;;;3.70;99.90;;;;;;6246582;23;20226;-89
2023/12/14 02:42:48;;;;;;;6.90;4.00;;;3.70;99.90;;;;;;6246586;23;20199;-89
2023/12/14 02:45:14;;;;;;;5.13;4.00;;;3.60;99.90;;;;;;6246745;23;20260;-89
2023/12/14 02:47:40;;;;;;;6.53;4.00;;;3.60;99.90;;;;;;6246864;23;20157;-90
2023/12/14 02:50:06;;;;;;;4.07;3.40;;;3.60;99.90;;;;;;6246792;23;20240;-87
2023/12/14 02:52:32;;;;;;;4.37;3.60;;;3.70;99.90;;;;;;6246848;23;20194;-88
2023/12/14 02:54:58;;;;;;;5.13;3.77;;;3.70;99.90;;;;;;6247344;23;20157;-89
2023/12/14 02:57:25;;;;;;;4.33;3.10;;;3.70;99.90;;;;;;6251245;22;20636;-89
2023/12/14 02:59:51;;;;;;;4.00;3.60;;;3.70;99.90;;;;;;6252004;22;20180;-89
2023/12/14 03:02:17;;;;;;;3.57;2.97;;;3.60;99.90;;;;;;6251920;22;20160;-89
2023/12/14 03:04:42;;;;;;;4.87;3.50;;;3.70;99.90;;;;;;6252026;22;20153;-89
2023/12/14 03:07:09;;;;;;;3.80;3.20;;;3.70;99.90;;;;;;6251955;22;20161;-87
2023/12/14 03:09:35;;;;;;;5.87;3.73;;;3.60;99.90;;;;;;6251875;22;20180;-88
2023/12/14 03:12:01;;;;;;;3.87;3.47;;;3.60;99.90;;;;;;6251276;22;20266;-90
2023/12/14 03:14:32;;;;;;;4.93;3.57;;;3.60;99.90;;;;;;6251945;22;20166;-89
2023/12/14 03:16:58;;;;;;;5.53;3.73;;;3.50;99.90;;;;;;6251559;22;20590;-89
2023/12/14 03:19:27;;;;;;;5.27;3.63;;;3.50;99.90;;;;;;6251696;22;20153;-88
2023/12/14 03:21:52;;;;;;;4.23;3.50;;;3.50;99.90;;;;;;6251874;22;20156;-88
2023/12/14 03:24:18;;;;;;;5.60;3.60;;;3.60;99.90;;;;;;6251582;22;20156;-88
2023/12/14 03:26:44;;;;;;;4.63;3.67;;;3.50;99.90;;;;;;6252322;22;20495;-88
2023/12/14 03:29:10;;;;;;;4.53;3.70;;;3.50;99.90;;;;;;6253430;22;20621;-89
2023/12/14 03:31:35;;;;;;;4.63;3.70;;;3.50;99.90;;;;;;6253593;22;20243;-88
2023/12/14 03:34:02;;;;;;;5.60;4.10;;;3.50;99.90;;;;;;6280612;22;20563;-88
2023/12/14 03:36:28;;;;;;;6.00;4.30;;;3.50;99.90;;;;;;6253416;22;20206;-88
2023/12/14 03:38:54;;;;;;;6.17;4.23;;;3.50;99.90;;;;;;6253488;22;20569;-89
2023/12/14 03:41:20;;;;;;;4.90;4.00;;;3.50;99.90;;;;;;6253325;22;20207;-88
2023/12/14 03:43:46;;;;;;;3.63;3.30;;;3.50;99.90;;;;;;6253379;22;20152;-90
2023/12/14 03:46:11;;;;;;;4.87;3.30;;;3.50;99.90;;;;;;6253034;22;20156;-91
2023/12/14 03:48:38;;;;;;;6.20;4.00;;;3.50;99.90;;;;;;6253318;22;20201;-88
2023/12/14 03:51:05;;;;;;;4.97;4.20;;;3.50;99.90;;;;;;6253421;22;20181;-88
2023/12/14 03:53:31;;;;;;;5.23;4.37;;;3.50;99.90;;;;;;6253452;22;20164;-91
2023/12/14 03:56:00;;;;;;;7.10;4.57;;;3.50;99.90;;;;;;6253055;22;20461;-89
2023/12/14 03:58:30;;;;;;;6.30;4.63;;;3.50;99.90;;;;;;6280396;22;20141;-91
2023/12/14 04:00:56;;;;;;;5.67;4.53;;;3.60;99.90;;;;;;6253518;22;20559;-90
2023/12/14 04:03:24;;;;;;;6.03;4.90;;;3.60;99.90;;;;;;6253652;22;20172;-92
2023/12/14 04:05:50;;;;;;;6.17;4.80;;;3.60;99.90;;;;;;6253427;22;20436;-89
2023/12/14 04:08:18;;;;;;;6.37;5.03;;;3.60;99.90;;;;;;6280493;22;20559;-91
2023/12/14 04:10:44;;;;;;;7.07;4.93;;;3.50;99.90;;;;;;6253469;22;20611;-89
2023/12/14 04:13:10;;;;;;;6.43;4.93;;;3.50;99.90;;;;;;6252621;22;20161;-88
2023/12/14 04:15:35;;;;;;;9.73;5.83;;;3.50;99.90;;;;;;6253481;22;20560;-89
2023/12/14 04:18:02;;;;;;;7.57;6.03;;;3.60;99.90;;;;;;6253042;22;20156;-91
2023/12/14 04:20:28;;;;;;;8.93;6.03;;;3.50;99.90;;;;;;6253379;22;20149;-90
2023/12/14 04:22:53;;;;;;;7.83;6.13;;;3.50;99.90;;;;;;6280392;22;20152;-89
2023/12/14 04:25:19;;;;;;;8.03;6.17;;;3.50;99.90;;;;;;6253150;22;20153;-89
2023/12/14 04:27:45;;;;;;;8.50;6.00;;;3.60;99.90;;;;;;6252823;22;20160;-88
2023/12/14 04:30:11;;;;;;;9.40;6.53;;;3.60;99.90;;;;;;6253000;22;20157;-92
2023/12/14 04:32:38;;;;;;;9.10;7.00;;;3.60;99.90;;;;;;6253168;22;20195;-89
2023/12/14 04:35:05;;;;;;;9.70;7.27;;;3.50;99.90;;;;;;6253365;22;20556;-89
2023/12/14 04:37:31;;;;;;;13.00;6.80;;;3.50;99.90;;;;;;6252636;22;20509;-92
2023/12/14 04:40:03;;;;;;;8.80;7.10;;;3.50;99.90;;;;;;6253231;22;20153;-88
2023/12/14 04:42:28;;;;;;;10.57;7.17;;;3.50;99.90;;;;;;6279821;22;20540;-88
2023/12/14 04:44:54;;;;;;;10.67;7.07;;;3.60;99.90;;;;;;6279985;22;20149;-88
2023/12/14 04:47:20;;;;;;;14.37;8.07;;;3.60;99.90;;;;;;6252793;22;20153;-90
2023/12/14 04:49:47;;;;;;;9.57;7.50;;;3.50;99.90;;;;;;6252908;22;20586;-88
2023/12/14 04:52:13;;;;;;;10.00;7.53;;;3.50;99.90;;;;;;6252918;22;20500;-87
2023/12/14 04:54:40;;;;;;;10.30;6.93;;;3.50;99.90;;;;;;6252933;22;20157;-87
2023/12/14 04:57:06;;;;;;;8.23;6.53;;;3.50;99.90;;;;;;6246802;23;20290;-88
2023/12/14 04:59:32;;;;;;;8.87;7.00;;;3.50;99.90;;;;;;6247296;23;20153;-88
2023/12/14 05:01:58;;;;;;;8.87;7.23;;;3.50;99.90;;;;;;6249006;23;20172;-88
2023/12/14 05:04:24;;;;;;;10.17;7.23;;;3.50;99.90;;;;;;6247469;23;20581;-88
2023/12/14 05:06:50;;;;;;;12.03;7.90;;;3.40;99.90;;;;;;6247713;23;20475;-89
2023/12/14 05:09:15;;;;;;;9.50;7.27;;;3.40;99.90;;;;;;6247637;23;20573;-88
2023/12/14 05:11:42;;;;;;;8.90;6.97;;;3.40;99.90;;;;;;6247321;23;20216;-91
2023/12/14 05:14:08;;;;;;;9.67;7.50;;;3.40;99.90;;;;;;6247687;23;20203;-88
2023/12/14 05:16:34;;;;;;;9.63;7.60;;;3.40;99.90;;;;;;6247188;23;20157;-87
2023/12/14 05:19:01;;;;;;;10.00;7.50;;;3.40;99.90;;;;;;6247312;23;20203;-86
2023/12/14 05:21:26;;;;;;;8.53;6.50;;;3.40;99.90;;;;;;6247432;23;20161;-89
2023/12/14 05:23:53;;;;;;;8.63;6.43;;;3.50;99.90;;;;;;6249009;23;20683;-88
2023/12/14 05:26:19;;;;;;;10.60;7.60;;;3.40;99.90;;;;;;6247039;23;20244;-88
2023/12/14 05:28:47;;;;;;;9.50;6.90;;;3.40;99.90;;;;;;6246839;23;20228;-88
2023/12/14 05:31:13;;;;;;;9.30;6.67;;;3.40;99.90;;;;;;6247170;23;20207;-89
2023/12/14 05:33:39;;;;;;;8.33;6.80;;;3.40;99.90;;;;;;6247294;23;20577;-89
2023/12/14 05:36:08;;;;;;;8.80;6.67;;;3.40;99.90;;;;;;6247246;23;20167;-88
2023/12/14 05:38:35;;;;;;;7.83;6.40;;;3.50;99.90;;;;;;6246618;23;20244;-88
2023/12/14 05:41:01;;;;;;;9.17;7.07;;;3.40;99.90;;;;;;6247064;23;20157;-88
2023/12/14 05:43:26;;;;;;;8.80;7.20;;;3.40;99.90;;;;;;6246831;23;20218;-89
2023/12/14 05:45:52;;;;;;;8.83;6.83;;;3.40;99.90;;;;;;6247275;23;20165;-87
2023/12/14 05:48:20;;;;;;;8.73;6.77;;;3.40;99.90;;;;;;6246635;23;20706;-90
2023/12/14 05:50:48;;;;;;;8.87;6.80;;;3.40;99.90;;;;;;6247103;23;20177;-93
2023/12/14 05:53:14;;;;;;;9.50;7.20;;;3.40;99.90;;;;;;6247187;23;20149;-89
2023/12/14 05:55:43;;;;;;;11.33;6.70;;;3.40;99.90;;;;;;6248443;22;20196;-91
2023/12/14 05:58:08;;;;;;;9.40;7.10;;;3.40;99.90;;;;;;6251844;22;20244;-88
2023/12/14 06:00:35;;;;;;;8.97;6.80;;;3.40;99.90;;;;;;6252085;22;20490;-88
2023/12/14 06:03:01;;;;;;;9.17;6.77;;;3.40;99.90;;;;;;6252157;22;20188;-92
2023/12/14 06:05:27;;;;;;;9.43;6.67;;;3.40;99.90;;;;;;6278814;22;20148;-90
2023/12/14 06:07:53;;;;;;;9.47;6.47;;;3.40;99.90;;;;;;6252130;22;20161;-89
2023/12/14 06:10:26;;;;;;;8.27;6.27;;;3.30;99.90;;;;;;6252149;22;20159;-88
2023/12/14 06:12:52;;;;;;;8.50;6.50;;;3.30;99.90;;;;;;6251655;22;20192;-90
2023/12/14 06:15:17;;;;;;;7.30;5.83;;;3.30;99.90;;;;;;6252277;22;20198;-90
2023/12/14 06:17:43;;;;;;;7.63;5.83;;;3.30;99.90;;;;;;6251891;22;20156;-88
2023/12/14 06:20:10;;;;;;;9.20;6.57;;;3.30;99.90;;;;;;6252009;22;20161;-88
2023/12/14 06:22:39;;;;;;;7.87;5.87;;;3.30;99.90;;;;;;6251078;22;20141;-89
2023/12/14 06:25:05;;;;;;;9.83;6.53;;;3.30;99.90;;;;;;6252093;22;20160;-89
2023/12/14 06:27:31;;;;;;;9.30;6.53;;;3.40;99.90;;;;;;6251427;22;20567;-90
2023/12/14 06:30:00;;;;;;;8.17;6.47;;;3.30;99.90;;;;;;6252232;22;20163;-90
2023/12/14 06:32:26;;;;;;;9.33;7.00;;;3.30;99.90;;;;;;6251550;22;20230;-90
2023/12/14 06:34:52;;;;;;;8.80;6.70;;;3.30;99.90;;;;;;6251707;22;20206;-90
2023/12/14 06:37:18;;;;;;;9.07;6.80;;;3.30;99.90;;;;;;6251794;22;20161;-90
2023/12/14 06:39:49;;;;;;;9.10;6.50;;;3.40;99.90;;;;;;6252039;22;20160;-89
2023/12/14 06:42:15;;;;;;;9.87;6.77;;;3.40;99.90;;;;;;6251761;22;20173;-89
2023/12/14 06:44:41;;;;;;;7.50;5.70;;;3.40;99.90;;;;;;6251740;22;20165;-90
2023/12/14 06:47:07;;;;;;;10.17;6.40;;;3.40;99.90;;;;;;6251731;22;20236;-89
2023/12/14 06:49:37;;;;;;;9.17;6.37;;;3.40;99.90;;;;;;6251531;22;20235;-90
2023/12/14 06:52:03;;;;;;;10.37;6.67;;;3.40;99.90;;;;;;6251553;22;20460;-90
2023/12/14 06:54:28;;;;;;;9.00;7.13;;;3.40;99.90;;;;;;6251817;22;20202;-90
2023/12/14 06:56:54;;;;;;;10.70;6.70;;;3.30;99.90;;;;;;6251074;22;20496;-89
2023/12/14 06:59:22;;;;;;;10.53;6.97;;;3.30;99.90;;;;;;6251697;22;20152;-89
2023/12/14 07:01:48;;;;;;;8.30;7.03;;;3.30;99.90;;;;;;6253618;22;20175;-89
2023/12/14 07:04:13;;;;;;;12.77;7.20;;;3.30;99.90;;;;;;6280528;22;20152;-90
2023/12/14 07:06:42;;;;;;;10.23;7.03;;;3.30;99.90;;;;;;6253736;22;20217;-89
2023/12/14 07:09:08;;;;;;;9.73;7.10;;;3.30;99.90;;;;;;6253860;22;20164;-88
2023/12/14 07:11:34;;;;;;;9.97;7.37;;;3.30;99.90;;;;;;6253651;22;20192;-89
2023/12/14 07:13:59;;;;;;;9.63;7.97;;;3.30;99.90;;;;;;6253687;22;20175;-90
2023/12/14 07:16:25;;;;;;;10.60;7.67;;;3.30;99.90;;;;;;6253353;22;20160;-90
2023/12/14 07:18:51;;;;;;;12.10;7.70;;;3.30;99.90;;;;;;6254076;22;20240;-90
2023/12/14 07:21:18;;;;;;;9.80;7.00;;;3.30;99.90;;;;;;6253653;22;20247;-92
2023/12/14 07:23:44;;;;;;;9.97;7.23;;;3.30;99.90;;;;;;6253531;22;20572;-89
2023/12/14 07:26:10;;;;;;;9.10;6.77;;;3.30;99.90;;;;;;6253554;22;20439;-89
2023/12/14 07:28:36;;;;;;;10.87;6.27;;;3.30;99.90;;;;;;6280480;22;20575;-88
2023/12/14 07:31:03;;;;;;;9.17;6.47;;;3.30;99.90;;;;;;6252874;22;20181;-91
2023/12/14 07:33:29;;;;;;;8.77;5.97;;;3.30;99.90;;;;;;6280455;22;20137;-89
2023/12/14 07:35:54;;;;;;;8.73;6.03;;;3.30;99.90;;;;;;6253337;22;20514;-88
2023/12/14 07:38:20;;;;;;;9.77;6.40;;;3.30;99.90;;;;;;6253347;22;20157;-89
2023/12/14 07:40:49;;;;;;;8.87;6.70;;;3.30;99.90;;;;;;6253600;22;20187;-89
2023/12/14 07:43:16;;;;;;;10.27;6.87;;;3.30;99.90;;;;;;6253394;22;20149;-89
2023/12/14 07:45:41;;;;;;;8.50;6.00;;;3.30;99.90;;;;;;6253051;22;20164;-90
2023/12/14 07:48:07;;;;;;;9.30;6.50;;;3.30;99.90;;;;;;6253373;22;20597;-90
2023/12/14 07:50:39;;;;;;;8.13;6.17;;;3.30;99.90;;;;;;6253272;22;20561;-90
2023/12/14 07:53:05;;;;;;;8.37;6.07;;;3.30;99.90;;;;;;6280665;22;20176;-94
2023/12/14 07:55:31;;;;;;;8.00;6.20;;;3.30;99.90;;;;;;6279533;22;20235;-93
2023/12/14 07:57:57;;;;;;;7.23;5.33;;;3.30;99.90;;;;;;6252775;22;20204;-90
2023/12/14 08:00:24;;;;;;;7.33;5.90;;;3.30;99.90;;;;;;6253144;22;20243;-93
2023/12/14 08:02:49;;;;;;;8.87;6.33;;;3.40;99.90;;;;;;6253629;22;20160;-94
2023/12/14 08:05:15;;;;;;;7.87;5.57;;;3.30;99.90;;;;;;6253649;22;20161;-94
2023/12/14 08:07:41;;;;;;;9.87;6.20;;;3.40;99.90;;;;;;6253382;22;20156;-93
2023/12/14 08:10:07;;;;;;;8.97;5.40;;;3.40;99.90;;;;;;6253548;22;20210;-95
2023/12/14 08:12:33;;;;;;;6.43;5.13;;;3.40;99.90;;;;;;6279426;22;20208;-93
2023/12/14 08:14:59;;;;;;;8.47;5.20;;;3.40;99.90;;;;;;6253432;22;20153;-95
2023/12/14 08:17:26;;;;;;;6.60;5.07;;;3.40;99.90;;;;;;6252759;22;20188;-93
2023/12/14 08:19:52;;;;;;;6.73;5.27;;;3.50;99.90;;;;;;6253321;22;20157;-92
2023/12/14 08:22:18;;;;;;;7.60;5.60;;;3.40;99.90;;;;;;6253309;22;20161;-93
2023/12/14 08:24:44;;;;;;;6.60;5.03;;;3.50;99.90;;;;;;6253827;22;20521;-91
2023/12/14 08:27:10;;;;;;;7.73;5.30;;;3.50;99.90;;;;;;6252522;22;20161;-94
2023/12/14 08:29:36;;;;;;;7.37;5.67;;;3.50;99.90;;;;;;6253132;22;20160;-95
2023/12/14 08:32:05;;;;;;;9.37;6.30;;;3.40;99.90;;;;;;6253169;22;20263;-90
2023/12/14 08:34:31;;;;;;;7.37;6.27;;;3.50;99.90;;;;;;6280183;22;20144;-92
2023/12/14 08:36:57;;;;;;;8.93;6.13;;;3.50;99.90;;;;;;6253335;22;20161;-93
2023/12/14 08:39:22;;;;;;;9.43;6.23;;;3.50;99.90;;;;;;6279808;22;20219;-90
2023/12/14 08:41:55;;;;;;;7.37;6.13;;;3.50;99.90;;;;;;6252758;22;20187;-90
2023/12/14 08:44:21;;;;;;;10.77;6.47;;;3.50;99.90;;;;;;6252664;22;20152;-90
2023/12/14 08:46:47;;;;;;;6.77;5.50;;;3.50;99.90;;;;;;6252913;22;20218;-93
2023/12/14 08:49:13;;;;;;;7.00;5.43;;;3.50;99.90;;;;;;6253081;22;20157;-89
2023/12/14 08:51:41;;;;;;;9.87;5.87;;;3.50;99.90;;;;;;6252672;22;20188;-89
2023/12/14 08:54:08;;;;;;;7.57;5.33;;;3.50;99.90;;;;;;6253021;22;20144;-93
2023/12/14 08:56:34;;;;;;;7.73;5.27;;;3.50;99.90;;;;;;6252208;22;20204;-90
2023/12/14 08:59:00;;;;;;;6.93;5.00;;;3.50;99.90;;;;;;6279499;22;20466;-91
2023/12/14 09:01:27;;;;;;;7.00;5.17;;;3.50;99.90;;;;;;6252850;22;20203;-89
2023/12/14 09:03:52;;;;;;;7.57;5.43;;;3.60;99.90;;;;;;6252840;22;20164;-89
2023/12/14 09:06:18;;;;;;;6.43;4.70;;;3.50;99.90;;;;;;6252880;22;20164;-90
2023/12/14 09:08:45;;;;;;;8.87;5.53;;;3.60;99.90;;;;;;6252881;22;20290;-89
2023/12/14 09:11:17;;;;;;;8.37;5.50;;;3.60;99.90;;;;;;6252436;22;20180;-89
2023/12/14 09:13:42;;;;;;;8.60;5.77;;;3.60;99.90;;;;;;6252420;22;20157;-89
2023/12/14 09:16:08;;;;;;;8.50;5.73;;;3.60;99.90;;;;;;6252319;22;20530;-89
2023/12/14 09:18:34;;;;;;;8.40;6.10;;;3.60;99.90;;;;;;6252478;22;20156;-90
2023/12/14 09:21:04;;;;;;;9.53;6.40;;;3.60;99.90;;;;;;6252664;22;20161;-90
2023/12/14 09:23:29;;;;;;;7.97;5.77;;;3.50;99.90;;;;;;6252468;22;20195;-89
2023/12/14 09:25:56;;;;;;;7.97;5.87;;;3.60;99.90;;;;;;6252506;22;20548;-89
2023/12/14 09:28:22;;;;;;;9.97;6.27;;;3.60;99.90;;;;;;6252134;22;20168;-90
2023/12/14 09:30:48;;;;;;;8.67;6.20;;;3.60;99.90;;;;;;6252479;22;20467;-90
2023/12/14 09:33:14;;;;;;;7.47;5.53;;;3.60;99.90;;;;;;6252653;22;20458;-89
2023/12/14 09:35:41;;;;;;;8.90;6.07;;;3.60;99.90;;;;;;6252492;22;20152;-89
2023/12/14 09:38:07;;;;;;;8.03;5.53;;;3.60;99.90;;;;;;6252414;22;20161;-90
2023/12/14 09:40:36;;;;;;;9.60;5.63;;;3.60;99.90;;;;;;6252136;22;20156;-90
2023/12/14 09:43:03;;;;;;;7.37;5.77;;;3.70;99.90;;;;;;6252211;22;20435;-91
2023/12/14 09:45:29;;;;;;;8.07;5.43;;;3.70;99.90;;;;;;6252464;22;20208;-90
2023/12/14 09:47:57;;;;;;;9.47;6.23;;;3.70;99.90;;;;;;6279188;22;20170;-89
2023/12/14 09:50:24;;;;;;;7.97;6.00;;;3.60;99.90;;;;;;6279235;22;20156;-89
2023/12/14 09:52:54;;;;;;;8.73;6.13;;;3.70;99.90;;;;;;6251881;22;20184;-88
2023/12/14 09:55:19;;;;;;;9.60;5.90;;;3.70;99.90;;;;;;6251857;22;20149;-90
2023/12/14 09:57:45;;;;;;;8.63;5.87;;;3.70;99.90;;;;;;6251560;22;20207;-90
2023/12/14 10:00:13;;;;;;;8.10;5.83;;;3.70;99.90;;;;;;6252392;22;20157;-90
2023/12/14 10:02:40;;;;;;;10.10;5.77;;;3.70;99.90;;;;;;6279250;22;20172;-90
2023/12/14 10:05:12;;;;;;;9.77;6.20;;;3.70;99.90;;;;;;6252283;22;20160;-89
2023/12/14 10:07:45;;;;;;;8.60;5.70;;;3.70;99.90;;;;;;6252014;22;20213;-89
2023/12/14 10:10:13;;;;;;;9.10;5.63;;;3.70;99.90;;;;;;6251989;22;20236;-89
2023/12/14 10:12:57;;;;;;;8.47;5.23;;;3.70;99.90;;;;;;6251655;22;20196;-89
2023/12/14 10:15:24;;;;;;;8.53;5.00;;;3.70;99.90;;;;;;6251980;22;20207;-91
2023/12/14 10:17:55;;;;;;;7.73;5.30;;;3.70;99.90;;;;;;6251442;22;20188;-89
2023/12/14 10:20:26;;;;;;;8.20;5.90;;;3.60;99.90;;;;;;6252040;22;20156;-90
2023/12/14 10:22:53;;;;;;;7.30;5.40;;;3.70;99.90;;;;;;6252207;22;20156;-90
2023/12/14 10:25:22;;;;;;;11.03;6.00;;;3.70;99.90;;;;;;6252161;22;20153;-89
2023/12/14 10:27:49;;;;;;;9.23;5.87;;;3.70;99.90;;;;;;6278642;22;20621;-90
2023/12/14 10:30:15;;;;;;;7.40;4.97;;;3.70;99.90;;;;;;6252186;22;20188;-90
2023/12/14 10:32:42;;;;;;;9.07;6.23;;;3.70;99.90;;;;;;6251875;22;20250;-89
2023/12/14 10:35:08;;;;;;;9.80;6.73;;;3.70;99.90;;;;;;6251706;22;20629;-90
2023/12/14 10:37:38;;;;;;;11.33;6.40;;;3.70;99.90;;;;;;6251557;22;20161;-89
2023/12/14 10:40:06;;;;;;;11.17;6.40;;;3.70;99.90;;;;;;6252437;22;20152;-90
2023/12/14 10:42:36;;;;;;;7.13;5.80;;;3.70;99.90;;;;;;6251505;22;20207;-90
2023/12/14 10:45:03;;;;;;;9.40;6.17;;;3.70;99.90;;;;;;6251941;22;20190;-91
2023/12/14 10:47:29;;;;;;;9.00;5.70;;;3.70;99.90;;;;;;6251896;22;20164;-90
2023/12/14 10:49:59;;;;;;;7.83;5.10;;;3.70;99.90;;;;;;6278859;22;20147;-89
2023/12/14 10:52:35;;;;;;;7.97;5.63;;;3.70;99.90;;;;;;6278466;22;20227;-89
2023/12/14 10:55:18;;;;;;;7.97;5.83;;;3.80;99.90;;;;;;6252002;22;20191;-88
2023/12/14 10:57:45;;;;;;;8.37;5.00;;;3.80;99.90;;;;;;6250788;22;20193;-88
2023/12/14 11:00:11;;;;;;;8.50;5.90;;;3.80;99.90;;;;;;6251562;22;20217;-88
2023/12/14 11:02:44;;;;;;;9.17;6.03;;;3.80;99.90;;;;;;6251576;22;20540;-90
2023/12/14 11:05:16;;;;;;;10.60;6.17;;;3.90;99.90;;;;;;6251569;22;20144;-89
2023/12/14 11:07:47;;;;;;;9.47;6.33;;;3.80;99.90;;;;;;6251569;22;20172;-90
2023/12/14 11:10:13;;;;;;;10.73;6.50;;;3.80;99.90;;;;;;6251249;22;20211;-90
2023/12/14 11:12:52;;;;;;;10.00;6.50;;;3.80;99.90;;;;;;6277982;22;20184;-88
2023/12/14 11:15:19;;;;;;;10.90;6.00;;;3.80;99.90;;;;;;6251570;22;20617;-88
2023/12/14 11:18:08;;;;;;;11.10;6.10;;;3.80;99.90;;;;;;6251195;22;20159;-89
2023/12/14 11:20:55;;;;;;;10.43;6.40;;;3.80;99.90;;;;;;6250847;22;20157;-88
2023/12/14 11:23:26;;;;;;;8.53;5.37;;;3.90;99.90;;;;;;6251239;22;20163;-89
2023/12/14 11:25:53;;;;;;;8.83;6.37;;;3.90;99.90;;;;;;6251531;22;20161;-89
2023/12/14 11:28:20;;;;;;;9.40;6.40;;;3.90;99.90;;;;;;6251350;22;20159;-88
2023/12/14 11:30:46;;;;;;;10.20;5.63;;;3.90;99.90;;;;;;6251173;22;20214;-88
2023/12/14 11:33:13;;;;;;;10.97;6.50;;;3.80;99.90;;;;;;6251211;22;20168;-90
2023/12/14 11:35:39;;;;;;;9.57;6.13;;;3.80;99.90;;;;;;6251399;22;20564;-88
2023/12/14 11:38:12;;;;;;;9.50;6.00;;;3.90;99.90;;;;;;6251495;22;20161;-88
2023/12/14 11:40:39;;;;;;;10.20;6.53;;;3.80;99.90;;;;;;6251516;22;20231;-89
2023/12/14 11:43:08;;;;;;;11.63;6.77;;;3.80;99.90;;;;;;6251016;22;20176;-86
2023/12/14 11:45:38;;;;;;;11.47;6.90;;;3.70;99.90;;;;;;6251268;22;20172;-89
2023/12/14 11:48:06;;;;;;;10.50;6.50;;;3.70;99.90;;;;;;6253149;22;20156;-88
2023/12/14 11:50:35;;;;;;;14.00;7.93;;;3.70;99.90;;;;;;6253319;22;20189;-90
2023/12/14 11:53:05;;;;;;;12.00;6.70;;;3.80;99.90;;;;;;6280390;22;20220;-89
2023/12/14 11:55:32;;;;;;;10.80;6.33;;;3.80;99.90;;;;;;6253131;22;20463;-88
2023/12/14 11:57:58;;;;;;;10.87;6.53;;;3.70;99.90;;;;;;6252823;22;20200;-89
2023/12/14 12:00:28;;;;;;;12.27;6.93;;;3.70;99.90;;;;;;6253179;22;20157;-89
2023/12/14 12:03:20;;;;;;;13.70;7.13;;;3.80;99.90;;;;;;6253261;22;20206;-89
2023/12/14 12:05:49;;;;;;;11.17;6.60;;;3.90;99.90;;;;;;6253504;22;20173;-88
2023/12/14 12:08:21;;;;;;;10.20;6.37;;;3.90;99.90;;;;;;6280191;22;20556;-89
2023/12/14 12:10:48;;;;;;;9.40;6.27;;;3.90;99.90;;;;;;6253206;22;20153;-88
2023/12/14 12:13:19;;;;;;;11.03;6.20;;;3.90;99.90;;;;;;6253043;22;20156;-88
2023/12/14 12:15:45;;;;;;;11.57;6.20;;;4.00;99.90;;;;;;6279796;22;20144;-88
2023/12/14 12:18:16;;;;;;;9.97;6.33;;;3.90;99.90;;;;;;6253067;22;20161;-88
2023/12/14 12:20:42;;;;;;;9.87;6.23;;;3.90;99.90;;;;;;6253079;22;20149;-89
2023/12/14 12:23:08;;;;;;;13.20;6.70;;;3.90;99.90;;;;;;6253080;22;20175;-88
2023/12/14 12:25:35;;;;;;;10.87;6.03;;;3.90;99.90;;;;;;6252783;22;20149;-89
2023/12/14 12:28:03;;;;;;;11.70;6.97;;;3.90;99.90;;;;;;6252716;22;20157;-88
2023/12/14 12:30:29;;;;;;;12.83;6.50;;;3.90;99.90;;;;;;6279865;22;20572;-88
2023/12/14 12:32:55;;;;;;;13.03;7.13;;;3.90;99.90;;;;;;6280106;22;20242;-91
2023/12/14 12:35:23;;;;;;;12.33;6.00;;;3.90;99.90;;;;;;6252968;22;20156;-88
2023/12/14 12:37:53;;;;;;;8.33;5.63;;;3.90;99.90;;;;;;6252792;22;20561;-94
2023/12/14 12:40:25;;;;;;;9.77;5.83;;;3.90;99.90;;;;;;6253042;22;20149;-92
2023/12/14 12:42:52;;;;;;;11.80;6.63;;;3.90;99.90;;;;;;6280057;22;20141;-90
2023/12/14 12:45:18;;;;;;;11.07;6.27;;;3.90;99.90;;;;;;6252821;22;20152;-90
2023/12/14 12:47:45;;;;;;;10.47;5.97;;;3.90;99.90;;;;;;6252705;22;20188;-89
2023/12/14 12:50:11;;;;;;;9.00;5.40;;;4.00;99.90;;;;;;6252720;22;20156;-88
2023/12/14 12:52:38;;;;;;;9.80;6.43;;;3.90;99.90;;;;;;6252512;22;20222;-87
2023/12/14 12:55:05;;;;;;;10.50;6.47;;;4.00;99.90;;;;;;6252740;22;20179;-92